.
WxDataArchive / Data Records for 2009-07-22
2009-07-21 July 2009 2009-07-23

Data Records for Wednesday, 22 July 2009

Time	Temp	Chill	HIndex	Humid	Dewpt	 Wind 	HiWind	WindDir	Rain 	Barom 
-----	----	-----	------	-----	-----	------	------	-------	-----	----- 
00:00	68.6	68.6	68.6	74	60.0	1	2	90	0.00	30.004 
00:05	68.4	68.4	68.4	74	59.8	0	2	90	0.00	30.004 
00:10	68.3	68.3	68.3	75	60.1	1	2	90	0.00	30.004 
00:15	68.3	68.3	68.3	76	60.4	0	1	90	0.00	30.001 
00:20	68.1	68.1	68.1	77	60.6	1	2	90	0.00	30.001 
00:25	68.1	68.1	68.1	77	60.6	1	2	90	0.00	30.001 
00:30	67.9	67.9	67.9	78	60.8	0	2	90	0.00	29.998 
00:35	67.9	67.9	67.9	79	61.1	0	1	90	0.00	29.998 
00:40	67.8	67.8	67.8	80	61.4	0	1	90	0.00	29.998 
00:45	67.8	67.8	67.8	81	61.7	0	2	90	0.00	29.997 
00:50	67.8	67.8	67.8	82	62.1	0	2	90	0.00	29.997 
00:55	67.8	67.8	67.8	82	62.1	0	2	90	0.00	29.997 
01:00	67.8	67.8	67.8	83	62.4	0	2	90	0.00	29.996 
01:05	67.6	67.6	67.6	84	62.6	0	1	90	0.00	29.996 
01:10	67.6	67.6	67.6	84	62.6	0	1	90	0.00	29.996 
01:15	67.4	67.4	67.4	85	62.7	0	2	90	0.00	29.995 
01:20	67.4	67.4	67.4	85	62.7	0	2	90	0.00	29.995 
01:25	67.3	67.3	67.3	86	63.0	0	1	90	0.00	29.995 
01:30	67.3	67.3	67.3	86	63.0	0	1	90	0.00	29.987 
01:35	67.3	67.3	67.3	87	63.3	0	1	90	0.00	29.987 
01:40	67.1	67.1	67.1	87	63.1	0	1	90	0.00	29.987 
01:45	67.1	67.1	67.1	87	63.1	0	1	90	0.00	29.984 
01:50	66.9	66.9	66.9	88	63.2	0	1	90	0.00	29.984 
01:55	66.9	66.9	66.9	88	63.2	0	1	90	0.00	29.984 
02:00	66.9	66.9	66.9	88	63.2	0	1	90	0.00	29.984 
02:05	66.9	66.9	66.9	88	63.2	0	1	90	0.00	29.984 
02:10	66.8	66.8	66.8	89	63.4	0	1	90	0.00	29.984 
02:15	66.8	66.8	66.8	89	63.4	0	2	90	0.00	29.982 
02:20	66.8	66.8	66.8	89	63.4	0	1	90	0.00	29.982 
02:25	66.8	66.8	66.8	89	63.4	0	1	90	0.00	29.982 
02:30	66.6	66.6	66.6	89	63.3	0	1	90	0.00	29.982 
02:35	66.6	66.6	66.6	89	63.3	0	1	90	0.00	29.982 
02:40	66.6	66.6	66.6	90	63.6	0	2	90	0.00	29.982 
02:45	66.4	66.4	66.4	90	63.4	0	1	90	0.00	29.981 
02:50	66.4	66.4	66.4	90	63.4	0	1	90	0.00	29.981 
02:55	66.4	66.4	66.4	90	63.4	0	1	90	0.00	29.981 
03:00	66.3	66.3	66.3	90	63.3	0	1	90	0.00	29.982 
03:05	66.3	66.3	66.3	90	63.3	0	1	90	0.00	29.982 
03:10	66.3	66.3	66.3	90	63.3	0	1	90	0.00	29.982 
03:15	66.1	66.1	66.1	90	63.1	0	0	---	0.00	29.982 
03:20	66.0	66.0	66.0	90	63.0	0	1	90	0.00	29.982 
03:25	66.0	66.0	66.0	90	63.0	0	0	---	0.00	29.982 
03:30	66.0	66.0	66.0	90	63.0	0	1	90	0.00	29.981 
03:35	66.0	66.0	66.0	91	63.3	0	1	90	0.00	29.981 
03:40	65.8	65.8	65.8	91	63.1	0	1	90	0.00	29.981 
03:45	65.8	65.8	65.8	91	63.1	0	0	---	0.00	29.980 
03:50	65.8	65.8	65.8	91	63.1	0	1	90	0.00	29.980 
03:55	65.8	65.8	65.8	91	63.1	0	1	90	0.00	29.980 
04:00	65.6	65.6	65.6	91	62.9	0	1	90	0.00	29.979 
04:05	65.6	65.6	65.6	91	62.9	0	1	90	0.00	29.979 
04:10	65.6	65.6	65.6	91	62.9	0	1	90	0.00	29.979 
04:15	65.6	65.6	65.6	91	62.9	0	1	90	0.00	29.978 
04:20	65.6	65.6	65.6	91	62.9	0	1	90	0.00	29.978 
04:25	65.6	65.6	65.6	91	62.9	0	1	90	0.00	29.978 
04:30	65.5	65.5	65.5	91	62.8	0	1	90	0.00	29.973 
04:35	65.5	65.5	65.5	91	62.8	0	2	90	0.00	29.973 
04:40	65.5	65.5	65.5	91	62.8	0	1	90	0.00	29.973 
04:45	65.3	65.3	65.3	91	62.6	0	0	---	0.00	29.973 
04:50	65.3	65.3	65.3	91	62.6	0	0	---	0.00	29.973 
04:55	65.3	65.3	65.3	92	62.9	0	0	---	0.00	29.973 
05:00	65.3	65.3	65.3	92	62.9	0	1	90	0.00	29.989 
05:05	65.3	65.3	65.3	92	62.9	0	0	---	0.00	29.989 
05:10	65.3	65.3	65.3	92	62.9	0	0	---	0.00	29.989 
05:15	65.3	65.3	65.3	92	62.9	0	0	---	0.00	29.987 
05:20	65.3	65.3	65.3	91	62.6	0	1	90	0.00	29.987 
05:25	65.3	65.3	65.3	91	62.6	0	1	90	0.00	29.987 
05:30	65.5	65.5	65.5	90	62.5	0	3	90	0.00	29.994 
05:35	65.6	65.6	65.6	89	62.3	0	2	90	0.07	29.994 
05:40	65.6	65.6	65.6	90	62.6	0	1	90	0.04	29.994 
05:45	65.3	65.3	65.3	90	62.3	0	1	90	0.03	29.999 
05:50	65.2	65.2	65.2	91	62.5	0	1	90	0.04	29.999 
05:55	65.0	65.0	65.0	92	62.6	0	1	90	0.02	29.999 
06:00	64.8	64.8	64.8	92	62.4	0	0	---	0.00	30.001 
06:05	64.7	64.7	64.7	92	62.3	0	0	---	0.00	30.001 
06:10	64.7	64.7	64.7	93	62.6	0	0	---	0.00	30.001 
06:15	64.7	64.7	64.7	93	62.6	0	0	---	0.00	30.005 
06:20	64.7	64.7	64.7	93	62.6	0	0	---	0.00	30.005 
06:25	64.7	64.7	64.7	93	62.6	0	0	---	0.00	30.005 
06:30	64.7	64.7	64.7	94	62.9	0	0	---	0.00	30.010 
06:35	64.8	64.8	64.8	94	63.0	0	1	90	0.00	30.010 
06:40	64.8	64.8	64.8	94	63.0	0	0	---	0.00	30.010 
06:45	64.7	64.7	64.7	94	62.9	0	1	90	0.00	30.015 
06:50	64.7	64.7	64.7	94	62.9	0	0	---	0.00	30.015 
06:55	64.7	64.7	64.7	94	62.9	0	0	---	0.01	30.015 
07:00	64.5	64.5	64.5	94	62.7	0	0	---	0.00	30.016 
07:05	64.5	64.5	64.5	94	62.7	0	0	---	0.01	30.016 
07:10	64.7	64.7	64.7	94	62.9	0	0	---	0.00	30.016 
07:15	64.7	64.7	64.7	94	62.9	0	0	---	0.00	30.016 
07:20	64.7	64.7	64.7	95	63.2	0	0	---	0.00	30.016 
07:25	64.7	64.7	64.7	95	63.2	0	0	---	0.00	30.016 
07:30	64.7	64.7	64.7	95	63.2	0	0	---	0.00	30.021 
07:35	64.7	64.7	64.7	95	63.2	0	0	---	0.00	30.021 
07:40	64.8	64.8	64.8	95	63.3	0	0	---	0.00	30.021 
07:45	64.8	64.8	64.8	95	63.3	0	0	---	0.01	30.024 
07:50	65.0	65.0	65.0	95	63.5	0	0	---	0.00	30.024 
07:55	65.0	65.0	65.0	95	63.5	0	1	90	0.00	30.024 
08:00	65.0	65.0	65.0	95	63.5	0	1	90	0.00	30.025 
08:05	64.8	64.8	64.8	95	63.3	0	0	---	0.00	30.025 
08:10	64.8	64.8	64.8	95	63.3	0	1	90	0.00	30.025 
08:15	64.8	64.8	64.8	95	63.3	0	1	90	0.00	30.027 
08:20	65.0	65.0	65.0	95	63.5	0	0	---	0.00	30.027 
08:25	65.2	65.2	65.2	95	63.7	0	1	90	0.00	30.027 
08:30	65.2	65.2	65.2	95	63.7	0	1	90	0.00	30.029 
08:35	65.3	65.3	65.3	95	63.8	0	2	90	0.00	30.029 
08:40	65.3	65.3	65.3	95	63.8	0	1	90	0.00	30.029 
08:45	65.3	65.3	65.3	95	63.8	0	1	90	0.00	30.027 
08:50	65.2	65.2	65.2	94	63.4	0	2	90	0.00	30.027 
08:55	65.2	65.2	65.2	95	63.7	0	1	90	0.00	30.027 
09:00	65.2	65.2	65.2	94	63.4	0	1	90	0.00	30.029 
09:05	65.3	65.3	65.3	94	63.5	0	2	90	0.00	30.029 
09:10	65.3	65.3	65.3	93	63.2	0	1	90	0.00	30.029 
09:15	65.3	65.3	65.3	93	63.2	0	2	90	0.00	30.035 
09:20	65.3	65.3	65.3	92	62.9	0	1	90	0.00	30.035 
09:25	65.3	65.3	65.3	92	62.9	0	1	90	0.00	30.035 
09:30	65.3	65.3	65.3	91	62.6	0	1	90	0.00	30.035 
09:35	65.3	65.3	65.3	90	62.3	1	3	90	0.00	30.035 
09:40	65.2	65.2	65.2	89	61.9	1	4	90	0.00	30.035 
09:45	65.2	65.2	65.2	88	61.6	1	3	90	0.00	30.029 
09:50	64.8	64.8	64.8	84	59.8	1	4	68	0.00	30.029 
09:55	64.8	64.8	64.8	84	59.8	1	4	68	0.00	30.029 
10:00	64.8	64.8	64.8	85	60.2	0	3	68	0.00	30.026 
10:05	64.8	64.8	64.8	85	60.2	0	2	68	0.00	30.026 
10:10	64.7	64.7	64.7	86	60.4	0	2	68	0.00	30.026 
10:15	64.7	64.7	64.7	86	60.4	0	2	68	0.00	30.026 
10:20	64.3	64.3	64.3	85	59.7	2	4	68	0.00	30.026 
10:25	64.3	64.3	64.3	86	60.0	1	2	90	0.00	30.026 
10:30	64.5	64.5	64.5	87	60.5	0	2	90	0.00	30.027 
10:35	64.5	64.5	64.5	87	60.5	0	1	90	0.00	30.027 
10:40	64.7	64.7	64.7	88	61.1	0	1	90	0.00	30.027 
10:45	64.7	64.7	64.7	87	60.7	1	3	90	0.00	30.024 
10:50	64.8	64.8	64.8	86	60.5	2	4	90	0.00	30.024 
10:55	65.2	65.2	65.2	86	60.9	1	4	68	0.00	30.024 
11:00	65.3	65.3	65.3	86	61.0	1	5	68	0.00	30.025 
11:05	65.3	65.3	65.3	85	60.7	1	5	68	0.00	30.025 
11:10	65.5	65.5	65.5	85	60.9	2	3	68	0.00	30.025 
11:15	65.6	65.6	65.6	84	60.6	3	4	90	0.00	30.022 
11:20	66.0	66.0	66.0	84	61.0	2	6	90	0.00	30.022 
11:25	66.3	66.3	66.3	84	61.3	1	4	112	0.00	30.022 
11:30	66.4	66.4	66.4	83	61.1	3	6	90	0.00	30.022 
11:35	66.8	66.8	66.8	83	61.5	2	4	90	0.00	30.022 
11:40	66.9	66.9	66.9	83	61.6	2	6	90	0.00	30.022 
11:45	67.1	67.1	67.1	82	61.4	3	6	68	0.00	30.020 
11:50	67.3	67.3	67.3	82	61.6	1	4	90	0.00	30.020 
11:55	67.3	67.3	67.3	82	61.6	2	5	112	0.00	30.020 
12:00	67.4	67.4	67.4	82	61.7	2	5	112	0.00	30.021 
12:05	67.4	67.4	67.4	82	61.7	2	5	112	0.00	30.021 
12:10	67.6	67.6	67.6	82	61.9	3	6	90	0.00	30.021 
12:15	67.6	67.6	67.6	81	61.6	3	6	90	0.00	30.021 
12:20	67.6	67.6	67.6	81	61.6	3	5	90	0.00	30.021 
12:25	67.8	67.8	67.8	81	61.7	3	6	90	0.00	30.021 
12:30	67.8	67.8	67.8	81	61.7	2	7	90	0.00	30.019 
12:35	67.8	67.8	67.8	81	61.7	2	7	112	0.00	30.019 
12:40	67.9	67.9	67.9	81	61.8	2	5	112	0.00	30.019 
12:45	67.9	67.9	67.9	81	61.8	1	4	135	0.00	30.017 
12:50	67.9	67.9	67.9	83	62.5	1	3	112	0.00	30.017 
12:55	67.6	67.6	67.6	84	62.6	2	6	112	0.00	30.017 
13:00	67.3	67.3	67.3	84	62.3	2	5	112	0.00	30.015 
13:05	67.1	67.1	67.1	85	62.4	2	7	90	0.00	30.015 
13:10	66.9	66.9	66.9	86	62.6	2	5	112	0.00	30.015 
13:15	66.6	66.6	66.6	87	62.6	2	5	90	0.00	30.018 
13:20	66.4	66.4	66.4	88	62.7	1	3	112	0.00	30.018 
13:25	66.1	66.1	66.1	89	62.8	2	5	112	0.03	30.018 
13:30	65.8	65.8	65.8	90	62.8	1	4	90	0.03	30.021 
13:35	65.5	65.5	65.5	91	62.8	1	6	90	0.05	30.021 
13:40	65.2	65.2	65.2	92	62.8	3	5	90	0.01	30.021 
13:45	65.0	65.0	65.0	92	62.6	2	4	68	0.01	30.011 
13:50	65.0	65.0	65.0	93	62.9	2	5	112	0.00	30.011 
13:55	65.0	65.0	65.0	94	63.2	2	4	90	0.00	30.011 
14:00	65.0	65.0	65.0	94	63.2	2	4	112	0.01	30.008 
14:05	65.0	65.0	65.0	94	63.2	1	4	90	0.00	30.008 
14:10	65.2	65.2	65.2	94	63.4	1	3	90	0.00	30.008 
14:15	65.2	65.2	65.2	94	63.4	1	3	90	0.01	30.003 
14:20	65.0	65.0	65.0	94	63.2	1	6	68	0.00	30.003 
14:25	65.0	65.0	65.0	94	63.2	1	4	68	0.00	30.003 
14:30	65.0	65.0	65.0	95	63.5	1	3	68	0.01	29.996 
14:35	65.0	65.0	65.0	94	63.2	2	4	68	0.00	29.996 
14:40	65.2	65.2	65.2	95	63.7	1	5	90	0.00	29.996 
14:45	65.2	65.2	65.2	95	63.7	1	3	90	0.00	29.994 
14:50	65.2	65.2	65.2	95	63.7	1	3	90	0.00	29.994 
14:55	65.2	65.2	65.2	95	63.7	2	5	90	0.01	29.994 
15:00	65.2	65.2	65.2	95	63.7	2	4	90	0.02	29.991 
15:05	65.3	65.3	65.3	95	63.8	1	4	90	0.01	29.991 
15:10	65.3	65.3	65.3	95	63.8	1	4	90	0.01	29.991 
15:15	65.2	65.2	65.2	95	63.7	1	4	90	0.01	29.986 
15:20	65.2	65.2	65.2	95	63.7	2	4	68	0.02	29.986 
15:25	65.2	65.2	65.2	95	63.7	2	3	90	0.01	29.986 
15:30	65.3	65.3	65.3	95	63.8	2	6	112	0.00	29.980 
15:35	65.5	65.5	65.5	95	64.0	2	6	68	0.01	29.980 
15:40	65.6	65.6	65.6	96	64.4	1	4	68	0.00	29.980 
15:45	65.8	65.8	65.8	96	64.6	1	3	112	0.00	29.976 
15:50	66.0	66.0	66.0	96	64.8	1	2	112	0.00	29.976 
15:55	66.1	66.1	66.1	96	64.9	1	4	112	0.00	29.976 
16:00	66.1	66.1	66.1	96	64.9	1	4	112	0.00	29.974 
16:05	66.3	66.3	66.3	96	65.1	1	5	90	0.01	29.974 
16:10	66.3	66.3	66.3	96	65.1	1	3	90	0.00	29.974 
16:15	66.4	66.4	66.4	96	65.2	1	3	90	0.00	29.973 
16:20	66.3	66.3	66.3	96	65.1	1	3	90	0.00	29.973 
16:25	66.3	66.3	66.3	96	65.1	1	3	90	0.00	29.973 
16:30	66.4	66.4	66.4	96	65.2	1	3	135	0.00	29.969 
16:35	66.6	66.6	66.6	95	65.1	1	3	68	0.00	29.969 
16:40	66.6	66.6	66.6	95	65.1	1	2	68	0.00	29.969 
16:45	66.8	66.8	66.8	95	65.3	0	2	68	0.00	29.964 
16:50	66.8	66.8	66.8	95	65.3	1	3	68	0.00	29.964 
16:55	66.6	66.6	66.6	95	65.1	1	3	68	0.00	29.964 
17:00	66.8	66.8	66.8	95	65.3	0	2	68	0.00	29.962 
17:05	66.8	66.8	66.8	95	65.3	0	2	90	0.00	29.962 
17:10	66.6	66.6	66.6	94	64.8	1	3	135	0.00	29.962 
17:15	66.8	66.8	66.8	94	65.0	0	1	112	0.00	29.961 
17:20	66.9	66.9	66.9	94	65.1	0	1	112	0.00	29.961 
17:25	66.9	66.9	66.9	94	65.1	0	2	112	0.00	29.961 
17:30	66.9	66.9	66.9	93	64.8	1	3	112	0.00	29.959 
17:35	67.1	67.1	67.1	93	65.0	0	1	112	0.00	29.959 
17:40	67.1	67.1	67.1	93	65.0	0	1	112	0.00	29.959 
17:45	67.1	67.1	67.1	93	65.0	0	1	112	0.00	29.957 
17:50	67.1	67.1	67.1	93	65.0	0	2	112	0.00	29.957 
17:55	67.1	67.1	67.1	93	65.0	0	2	112	0.00	29.957 
18:00	67.3	67.3	67.3	92	64.9	1	3	112	0.00	29.953 
18:05	67.3	67.3	67.3	92	64.9	1	3	112	0.00	29.953 
18:10	67.4	67.4	67.4	92	65.0	1	4	112	0.00	29.953 
18:15	67.6	67.6	67.6	91	64.9	2	4	90	0.00	29.950 
18:20	67.8	67.8	67.8	91	65.1	1	3	90	0.00	29.950 
18:25	67.8	67.8	67.8	90	64.8	1	4	90	0.00	29.950 
18:30	67.9	67.9	67.9	90	64.9	1	3	90	0.00	29.955 
18:35	68.1	68.1	68.1	90	65.0	1	2	90	0.00	29.955 
18:40	68.1	68.1	68.1	89	64.7	1	3	90	0.00	29.955 
18:45	67.9	67.9	67.9	89	64.5	1	3	90	0.00	29.958 
18:50	67.9	67.9	67.9	89	64.5	0	1	90	0.00	29.958 
18:55	67.9	67.9	67.9	89	64.5	0	2	90	0.00	29.958 
19:00	67.9	67.9	67.9	89	64.5	0	2	90	0.00	29.956 
19:05	67.8	67.8	67.8	89	64.4	1	2	90	0.00	29.956 
19:10	67.8	67.8	67.8	89	64.4	0	2	90	0.00	29.956 
19:15	67.6	67.6	67.6	89	64.2	0	3	90	0.00	29.954 
19:20	67.4	67.4	67.4	88	63.7	0	2	90	0.00	29.954 
19:25	67.4	67.4	67.4	88	63.7	0	2	90	0.00	29.954 
19:30	67.4	67.4	67.4	85	62.7	0	2	112	0.00	29.951 
19:35	67.3	67.3	67.3	88	63.6	1	3	112	0.00	29.951 
19:40	67.3	67.3	67.3	88	63.6	0	2	112	0.00	29.951 
19:45	67.3	67.3	67.3	88	63.6	0	2	112	0.00	29.949 
19:50	67.4	67.4	67.4	88	63.7	1	2	112	0.00	29.949 
19:55	67.4	67.4	67.4	88	63.7	1	2	112	0.00	29.949 
20:00	67.6	67.6	67.6	88	63.9	0	2	112	0.00	29.946 
20:05	67.4	67.4	67.4	88	63.7	1	2	112	0.00	29.946 
20:10	67.4	67.4	67.4	88	63.7	0	3	112	0.00	29.946 
20:15	67.4	67.4	67.4	88	63.7	0	2	112	0.00	29.945 
20:20	67.4	67.4	67.4	88	63.7	0	1	112	0.00	29.945 
20:25	67.4	67.4	67.4	88	63.7	0	2	112	0.00	29.945 
20:30	67.4	67.4	67.4	88	63.7	0	1	112	0.00	29.944 
20:35	67.3	67.3	67.3	88	63.6	0	2	112	0.00	29.944 
20:40	67.3	67.3	67.3	88	63.6	1	2	112	0.00	29.944 
20:45	67.3	67.3	67.3	88	63.6	0	2	112	0.00	29.944 
20:50	67.3	67.3	67.3	88	63.6	0	1	112	0.00	29.944 
20:55	67.3	67.3	67.3	88	63.6	1	3	112	0.00	29.944 
21:00	67.3	67.3	67.3	88	63.6	0	2	112	0.00	29.944 
21:05	67.3	67.3	67.3	89	63.9	0	2	112	0.00	29.944 
21:10	67.3	67.3	67.3	89	63.9	0	1	112	0.00	29.944 
21:15	67.3	67.3	67.3	89	63.9	0	1	112	0.00	29.944 
21:20	67.3	67.3	67.3	89	63.9	0	3	112	0.00	29.944 
21:25	67.3	67.3	67.3	89	63.9	0	1	112	0.00	29.944 
21:30	67.3	67.3	67.3	89	63.9	0	1	112	0.00	29.944 
21:35	67.1	67.1	67.1	90	64.1	0	1	112	0.00	29.944 
21:40	67.1	67.1	67.1	90	64.1	0	2	112	0.00	29.944 
21:45	67.1	67.1	67.1	90	64.1	0	1	112	0.00	29.944 
21:50	67.1	67.1	67.1	89	63.7	1	4	112	0.00	29.944 
21:55	66.9	66.9	66.9	89	63.5	0	1	112	0.00	29.944 
22:00	66.9	66.9	66.9	89	63.5	0	2	112	0.00	29.944 
22:05	66.9	66.9	66.9	89	63.5	0	2	112	0.00	29.944 
22:10	66.9	66.9	66.9	89	63.5	0	1	112	0.00	29.944 
22:15	66.9	66.9	66.9	89	63.5	0	1	112	0.00	29.945 
22:20	66.9	66.9	66.9	89	63.5	0	2	112	0.00	29.945 
22:25	66.9	66.9	66.9	89	63.5	0	1	112	0.00	29.945 
22:30	66.9	66.9	66.9	89	63.5	0	1	112	0.00	29.945 
22:35	66.9	66.9	66.9	89	63.5	0	2	112	0.00	29.945 
22:40	66.8	66.8	66.8	89	63.4	0	1	112	0.00	29.945 
22:45	66.8	66.8	66.8	89	63.4	0	2	112	0.00	29.943 
22:50	66.8	66.8	66.8	89	63.4	1	3	112	0.00	29.943 
22:55	66.8	66.8	66.8	89	63.4	1	5	90	0.00	29.943 
23:00	66.8	66.8	66.8	90	63.8	1	3	90	0.00	29.937 
23:05	66.8	66.8	66.8	90	63.8	0	1	90	0.00	29.937 
23:10	66.8	66.8	66.8	90	63.8	1	3	90	0.00	29.937 
23:15	66.8	66.8	66.8	91	64.1	0	2	90	0.00	29.930 
23:20	66.6	66.6	66.6	91	63.9	1	2	90	0.00	29.930 
23:25	66.6	66.6	66.6	91	63.9	0	2	90	0.00	29.930 
23:30	66.6	66.6	66.6	91	63.9	0	3	90	0.00	29.926 
23:35	66.6	66.6	66.6	92	64.2	0	3	90	0.00	29.926 
23:40	66.6	66.6	66.6	92	64.2	0	2	90	0.00	29.926 
23:45	66.6	66.6	66.6	92	64.2	1	3	90	0.00	29.921 
23:50	66.4	66.4	66.4	92	64.0	0	2	90	0.00	29.921 
23:55	66.4	66.4	66.4	92	64.0	0	1	90	0.00	29.921 

CoCoRaHS
IN-AL-39
A2 Web Hosting
Creative Commons License
GoDaddy
search engine by freefind advanced

loaded 2018-11-20 03:36:19 • last modified 2010-11-18 10:43:29
Privacy PolicyDisclaimer
• wx.awcolley.com is powered by PmWiki v.2002016 •
• all content (unless otherwise noted) © 2018 A W Colley